sensor_id;sensor_type;location;lat;lon;timestamp;P1;durP1;ratioP1;P2;durP2;ratioP2
82811;SDS011;72567;55.696;37.960;2024-02-23T00:02:50;25.23;;;10.15;;
82811;SDS011;72567;55.696;37.960;2024-02-23T00:05:51;17.60;;;9.50;;
82811;SDS011;72567;55.696;37.960;2024-02-23T00:08:51;23.17;;;10.52;;
82811;SDS011;72567;55.696;37.960;2024-02-23T00:11:53;17.15;;;8.13;;
82811;SDS011;72567;55.696;37.960;2024-02-23T00:14:54;21.45;;;10.48;;
82811;SDS011;72567;55.696;37.960;2024-02-23T00:17:55;23.25;;;9.68;;
82811;SDS011;72567;55.696;37.960;2024-02-23T00:20:55;22.45;;;9.52;;
82811;SDS011;72567;55.696;37.960;2024-02-23T00:23:56;17.08;;;8.90;;
82811;SDS011;72567;55.696;37.960;2024-02-23T00:26:57;14.63;;;7.47;;
82811;SDS011;72567;55.696;37.960;2024-02-23T00:29:58;22.20;;;9.43;;
82811;SDS011;72567;55.696;37.960;2024-02-23T00:32:58;25.67;;;11.15;;
82811;SDS011;72567;55.696;37.960;2024-02-23T00:35:59;17.52;;;8.02;;
82811;SDS011;72567;55.696;37.960;2024-02-23T00:38:59;19.90;;;10.18;;
82811;SDS011;72567;55.696;37.960;2024-02-23T00:42:00;21.05;;;9.05;;
82811;SDS011;72567;55.696;37.960;2024-02-23T00:45:00;17.50;;;8.40;;
82811;SDS011;72567;55.696;37.960;2024-02-23T00:48:03;18.30;;;8.57;;
82811;SDS011;72567;55.696;37.960;2024-02-23T00:51:04;21.77;;;11.82;;
82811;SDS011;72567;55.696;37.960;2024-02-23T00:54:05;24.02;;;9.20;;
82811;SDS011;72567;55.696;37.960;2024-02-23T00:57:08;26.73;;;11.40;;
82811;SDS011;72567;55.696;37.960;2024-02-23T01:00:08;26.10;;;10.45;;
82811;SDS011;72567;55.696;37.960;2024-02-23T01:03:10;23.48;;;10.85;;
82811;SDS011;72567;55.696;37.960;2024-02-23T01:06:10;21.17;;;11.20;;
82811;SDS011;72567;55.696;37.960;2024-02-23T01:09:11;18.67;;;8.90;;
82811;SDS011;72567;55.696;37.960;2024-02-23T01:12:11;17.25;;;6.95;;
82811;SDS011;72567;55.696;37.960;2024-02-23T01:15:12;17.92;;;7.93;;
82811;SDS011;72567;55.696;37.960;2024-02-23T01:18:13;23.13;;;11.45;;
82811;SDS011;72567;55.696;37.960;2024-02-23T01:21:13;21.60;;;10.43;;
82811;SDS011;72567;55.696;37.960;2024-02-23T01:24:14;14.90;;;7.63;;
82811;SDS011;72567;55.696;37.960;2024-02-23T01:27:15;21.65;;;9.50;;
82811;SDS011;72567;55.696;37.960;2024-02-23T01:30:15;25.40;;;10.43;;
82811;SDS011;72567;55.696;37.960;2024-02-23T01:33:16;26.10;;;12.50;;
82811;SDS011;72567;55.696;37.960;2024-02-23T01:36:16;19.92;;;7.70;;
82811;SDS011;72567;55.696;37.960;2024-02-23T01:39:18;19.85;;;8.57;;
82811;SDS011;72567;55.696;37.960;2024-02-23T01:42:18;13.85;;;5.70;;
82811;SDS011;72567;55.696;37.960;2024-02-23T01:45:19;18.60;;;9.45;;
82811;SDS011;72567;55.696;37.960;2024-02-23T01:48:20;21.63;;;9.82;;
82811;SDS011;72567;55.696;37.960;2024-02-23T01:51:21;17.92;;;8.45;;
82811;SDS011;72567;55.696;37.960;2024-02-23T01:54:21;21.17;;;9.63;;
82811;SDS011;72567;55.696;37.960;2024-02-23T01:57:22;23.50;;;12.65;;
82811;SDS011;72567;55.696;37.960;2024-02-23T02:00:24;25.85;;;11.15;;
82811;SDS011;72567;55.696;37.960;2024-02-23T02:03:25;16.25;;;6.70;;
82811;SDS011;72567;55.696;37.960;2024-02-23T02:06:26;23.27;;;10.43;;
82811;SDS011;72567;55.696;37.960;2024-02-23T02:09:26;21.45;;;9.95;;
82811;SDS011;72567;55.696;37.960;2024-02-23T02:12:27;18.10;;;7.63;;
82811;SDS011;72567;55.696;37.960;2024-02-23T02:15:28;20.23;;;8.05;;
82811;SDS011;72567;55.696;37.960;2024-02-23T02:18:29;18.63;;;9.73;;
82811;SDS011;72567;55.696;37.960;2024-02-23T02:21:30;20.98;;;9.75;;
82811;SDS011;72567;55.696;37.960;2024-02-23T02:24:32;24.65;;;10.50;;
82811;SDS011;72567;55.696;37.960;2024-02-23T02:27:33;17.90;;;7.95;;
82811;SDS011;72567;55.696;37.960;2024-02-23T02:30:34;24.25;;;8.98;;
82811;SDS011;72567;55.696;37.960;2024-02-23T02:33:34;20.15;;;8.32;;
82811;SDS011;72567;55.696;37.960;2024-02-23T02:36:35;15.77;;;7.43;;
82811;SDS011;72567;55.696;37.960;2024-02-23T02:39:35;21.65;;;9.52;;
82811;SDS011;72567;55.696;37.960;2024-02-23T02:42:36;19.30;;;9.77;;
82811;SDS011;72567;55.696;37.960;2024-02-23T02:45:37;21.48;;;9.80;;
82811;SDS011;72567;55.696;37.960;2024-02-23T02:48:38;24.08;;;10.75;;
82811;SDS011;72567;55.696;37.960;2024-02-23T02:51:38;18.67;;;7.68;;
82811;SDS011;72567;55.696;37.960;2024-02-23T02:54:39;19.13;;;8.63;;
82811;SDS011;72567;55.696;37.960;2024-02-23T02:57:39;21.95;;;8.60;;
82811;SDS011;72567;55.696;37.960;2024-02-23T03:00:40;20.98;;;9.15;;
82811;SDS011;72567;55.696;37.960;2024-02-23T03:03:41;17.73;;;8.18;;
82811;SDS011;72567;55.696;37.960;2024-02-23T03:06:41;17.90;;;8.88;;
82811;SDS011;72567;55.696;37.960;2024-02-23T03:09:42;20.58;;;10.57;;
82811;SDS011;72567;55.696;37.960;2024-02-23T03:12:43;18.52;;;8.48;;
82811;SDS011;72567;55.696;37.960;2024-02-23T03:15:44;18.30;;;6.30;;
82811;SDS011;72567;55.696;37.960;2024-02-23T03:18:44;19.25;;;10.60;;
82811;SDS011;72567;55.696;37.960;2024-02-23T03:21:46;25.83;;;11.23;;
82811;SDS011;72567;55.696;37.960;2024-02-23T03:24:46;23.05;;;10.90;;
82811;SDS011;72567;55.696;37.960;2024-02-23T03:27:47;19.02;;;9.70;;
82811;SDS011;72567;55.696;37.960;2024-02-23T03:30:47;24.83;;;10.65;;
82811;SDS011;72567;55.696;37.960;2024-02-23T03:33:48;24.17;;;10.15;;
82811;SDS011;72567;55.696;37.960;2024-02-23T03:36:48;20.75;;;10.77;;
82811;SDS011;72567;55.696;37.960;2024-02-23T03:39:49;23.45;;;9.82;;
82811;SDS011;72567;55.696;37.960;2024-02-23T03:42:50;18.50;;;8.63;;
82811;SDS011;72567;55.696;37.960;2024-02-23T03:45:50;17.38;;;8.45;;
82811;SDS011;72567;55.696;37.960;2024-02-23T03:48:51;19.42;;;9.65;;
82811;SDS011;72567;55.696;37.960;2024-02-23T03:51:52;23.83;;;10.75;;
82811;SDS011;72567;55.696;37.960;2024-02-23T03:54:53;26.45;;;9.55;;
82811;SDS011;72567;55.696;37.960;2024-02-23T03:57:55;25.90;;;11.00;;
82811;SDS011;72567;55.696;37.960;2024-02-23T04:00:55;24.73;;;11.70;;
82811;SDS011;72567;55.696;37.960;2024-02-23T04:03:56;20.77;;;10.48;;
82811;SDS011;72567;55.696;37.960;2024-02-23T04:06:56;21.58;;;9.35;;
82811;SDS011;72567;55.696;37.960;2024-02-23T04:09:57;24.58;;;10.85;;
82811;SDS011;72567;55.696;37.960;2024-02-23T04:12:58;21.30;;;9.10;;
82811;SDS011;72567;55.696;37.960;2024-02-23T04:16:00;21.33;;;9.13;;
82811;SDS011;72567;55.696;37.960;2024-02-23T04:19:02;22.38;;;11.20;;
82811;SDS011;72567;55.696;37.960;2024-02-23T04:22:02;16.27;;;7.45;;
82811;SDS011;72567;55.696;37.960;2024-02-23T04:25:04;20.20;;;9.13;;
82811;SDS011;72567;55.696;37.960;2024-02-23T04:28:05;20.70;;;10.98;;
82811;SDS011;72567;55.696;37.960;2024-02-23T04:31:06;25.23;;;12.25;;
82811;SDS011;72567;55.696;37.960;2024-02-23T04:34:07;20.85;;;10.02;;
82811;SDS011;72567;55.696;37.960;2024-02-23T04:37:08;23.88;;;12.52;;
82811;SDS011;72567;55.696;37.960;2024-02-23T04:40:09;20.98;;;8.30;;
82811;SDS011;72567;55.696;37.960;2024-02-23T04:43:10;22.13;;;10.05;;
82811;SDS011;72567;55.696;37.960;2024-02-23T04:46:10;19.85;;;9.35;;
82811;SDS011;72567;55.696;37.960;2024-02-23T04:49:12;19.92;;;8.93;;
82811;SDS011;72567;55.696;37.960;2024-02-23T04:52:13;27.48;;;11.23;;
82811;SDS011;72567;55.696;37.960;2024-02-23T04:55:13;25.50;;;12.30;;
82811;SDS011;72567;55.696;37.960;2024-02-23T04:58:14;31.27;;;14.82;;
82811;SDS011;72567;55.696;37.960;2024-02-23T05:01:15;28.85;;;12.90;;
82811;SDS011;72567;55.696;37.960;2024-02-23T05:04:16;23.65;;;11.60;;
82811;SDS011;72567;55.696;37.960;2024-02-23T05:07:16;23.33;;;12.45;;
82811;SDS011;72567;55.696;37.960;2024-02-23T05:10:17;19.80;;;10.82;;
82811;SDS011;72567;55.696;37.960;2024-02-23T05:13:18;22.98;;;11.02;;
82811;SDS011;72567;55.696;37.960;2024-02-23T05:16:18;17.73;;;9.18;;
82811;SDS011;72567;55.696;37.960;2024-02-23T05:19:19;22.92;;;9.73;;
82811;SDS011;72567;55.696;37.960;2024-02-23T05:22:20;21.77;;;9.35;;
82811;SDS011;72567;55.696;37.960;2024-02-23T05:25:20;19.35;;;10.10;;
82811;SDS011;72567;55.696;37.960;2024-02-23T05:28:21;21.42;;;10.80;;
82811;SDS011;72567;55.696;37.960;2024-02-23T05:31:23;18.33;;;8.45;;
82811;SDS011;72567;55.696;37.960;2024-02-23T05:34:46;21.58;;;11.30;;
82811;SDS011;72567;55.696;37.960;2024-02-23T05:37:51;18.30;;;9.10;;
82811;SDS011;72567;55.696;37.960;2024-02-23T05:40:52;21.55;;;11.23;;
82811;SDS011;72567;55.696;37.960;2024-02-23T05:43:52;16.25;;;7.45;;
82811;SDS011;72567;55.696;37.960;2024-02-23T05:46:53;23.58;;;9.90;;
82811;SDS011;72567;55.696;37.960;2024-02-23T05:49:53;19.60;;;8.85;;
82811;SDS011;72567;55.696;37.960;2024-02-23T05:52:54;21.55;;;9.50;;
82811;SDS011;72567;55.696;37.960;2024-02-23T05:55:55;21.63;;;10.93;;
82811;SDS011;72567;55.696;37.960;2024-02-23T05:58:55;23.08;;;9.70;;
82811;SDS011;72567;55.696;37.960;2024-02-23T06:01:56;22.85;;;8.93;;
82811;SDS011;72567;55.696;37.960;2024-02-23T06:05:01;22.55;;;10.55;;
82811;SDS011;72567;55.696;37.960;2024-02-23T06:08:01;19.00;;;7.82;;
82811;SDS011;72567;55.696;37.960;2024-02-23T06:11:03;23.60;;;11.35;;
82811;SDS011;72567;55.696;37.960;2024-02-23T06:14:04;23.77;;;10.27;;
82811;SDS011;72567;55.696;37.960;2024-02-23T06:17:04;23.23;;;9.80;;
82811;SDS011;72567;55.696;37.960;2024-02-23T06:20:07;21.48;;;11.30;;
82811;SDS011;72567;55.696;37.960;2024-02-23T06:23:08;23.50;;;10.00;;
82811;SDS011;72567;55.696;37.960;2024-02-23T06:26:09;22.63;;;11.20;;
82811;SDS011;72567;55.696;37.960;2024-02-23T06:29:10;23.98;;;10.93;;
82811;SDS011;72567;55.696;37.960;2024-02-23T06:32:11;26.00;;;11.18;;
82811;SDS011;72567;55.696;37.960;2024-02-23T06:35:12;22.95;;;7.60;;
82811;SDS011;72567;55.696;37.960;2024-02-23T06:38:13;17.10;;;8.55;;
82811;SDS011;72567;55.696;37.960;2024-02-23T06:41:13;22.08;;;9.15;;
82811;SDS011;72567;55.696;37.960;2024-02-23T06:44:14;25.15;;;10.65;;
82811;SDS011;72567;55.696;37.960;2024-02-23T06:47:15;24.75;;;10.57;;
82811;SDS011;72567;55.696;37.960;2024-02-23T06:50:16;17.75;;;7.93;;
82811;SDS011;72567;55.696;37.960;2024-02-23T06:53:16;17.98;;;7.75;;
82811;SDS011;72567;55.696;37.960;2024-02-23T06:56:17;32.92;;;12.52;;
82811;SDS011;72567;55.696;37.960;2024-02-23T06:59:17;19.40;;;9.85;;
82811;SDS011;72567;55.696;37.960;2024-02-23T07:02:18;14.88;;;7.47;;
82811;SDS011;72567;55.696;37.960;2024-02-23T07:05:19;21.08;;;9.70;;
82811;SDS011;72567;55.696;37.960;2024-02-23T07:08:20;22.45;;;8.70;;
82811;SDS011;72567;55.696;37.960;2024-02-23T07:11:20;23.50;;;8.68;;
82811;SDS011;72567;55.696;37.960;2024-02-23T07:14:21;23.98;;;11.52;;
82811;SDS011;72567;55.696;37.960;2024-02-23T07:17:22;22.98;;;11.52;;
82811;SDS011;72567;55.696;37.960;2024-02-23T07:20:23;11.25;;;5.80;;
82811;SDS011;72567;55.696;37.960;2024-02-23T07:23:23;17.00;;;8.82;;
82811;SDS011;72567;55.696;37.960;2024-02-23T07:26:24;23.08;;;11.90;;
82811;SDS011;72567;55.696;37.960;2024-02-23T07:29:24;27.90;;;13.48;;
82811;SDS011;72567;55.696;37.960;2024-02-23T07:32:25;23.33;;;10.63;;
82811;SDS011;72567;55.696;37.960;2024-02-23T07:35:26;21.98;;;8.38;;
82811;SDS011;72567;55.696;37.960;2024-02-23T07:38:26;19.88;;;8.82;;
82811;SDS011;72567;55.696;37.960;2024-02-23T07:41:27;16.40;;;8.45;;
82811;SDS011;72567;55.696;37.960;2024-02-23T07:44:28;19.25;;;9.60;;
82811;SDS011;72567;55.696;37.960;2024-02-23T07:47:29;25.52;;;9.18;;
82811;SDS011;72567;55.696;37.960;2024-02-23T07:50:30;20.15;;;8.32;;
82811;SDS011;72567;55.696;37.960;2024-02-23T07:53:30;20.60;;;9.75;;
82811;SDS011;72567;55.696;37.960;2024-02-23T07:56:31;17.33;;;8.77;;
82811;SDS011;72567;55.696;37.960;2024-02-23T07:59:32;16.70;;;9.27;;
82811;SDS011;72567;55.696;37.960;2024-02-23T08:02:33;21.48;;;9.75;;
82811;SDS011;72567;55.696;37.960;2024-02-23T08:05:34;19.08;;;8.95;;
82811;SDS011;72567;55.696;37.960;2024-02-23T08:08:35;25.13;;;11.57;;
82811;SDS011;72567;55.696;37.960;2024-02-23T08:11:36;22.38;;;10.00;;
82811;SDS011;72567;55.696;37.960;2024-02-23T08:14:36;19.48;;;8.93;;
82811;SDS011;72567;55.696;37.960;2024-02-23T08:17:37;18.17;;;8.07;;
82811;SDS011;72567;55.696;37.960;2024-02-23T08:20:38;23.85;;;11.13;;
82811;SDS011;72567;55.696;37.960;2024-02-23T08:23:38;19.83;;;8.68;;
82811;SDS011;72567;55.696;37.960;2024-02-23T08:26:39;18.45;;;8.63;;
82811;SDS011;72567;55.696;37.960;2024-02-23T08:29:41;25.08;;;11.13;;
82811;SDS011;72567;55.696;37.960;2024-02-23T08:32:41;23.88;;;10.50;;
82811;SDS011;72567;55.696;37.960;2024-02-23T08:35:42;21.95;;;9.52;;
82811;SDS011;72567;55.696;37.960;2024-02-23T08:38:42;20.52;;;9.73;;
82811;SDS011;72567;55.696;37.960;2024-02-23T08:41:43;23.38;;;9.63;;
82811;SDS011;72567;55.696;37.960;2024-02-23T08:44:44;24.60;;;10.60;;
82811;SDS011;72567;55.696;37.960;2024-02-23T08:47:44;21.38;;;10.23;;
82811;SDS011;72567;55.696;37.960;2024-02-23T08:50:45;21.77;;;8.40;;
82811;SDS011;72567;55.696;37.960;2024-02-23T08:53:46;19.63;;;9.80;;
82811;SDS011;72567;55.696;37.960;2024-02-23T08:56:47;20.48;;;9.05;;
82811;SDS011;72567;55.696;37.960;2024-02-23T08:59:47;17.42;;;8.68;;
82811;SDS011;72567;55.696;37.960;2024-02-23T09:02:48;21.63;;;9.02;;
82811;SDS011;72567;55.696;37.960;2024-02-23T09:05:50;19.08;;;10.48;;
82811;SDS011;72567;55.696;37.960;2024-02-23T09:08:51;22.05;;;10.18;;
82811;SDS011;72567;55.696;37.960;2024-02-23T09:11:51;18.85;;;9.55;;
82811;SDS011;72567;55.696;37.960;2024-02-23T09:14:52;13.07;;;4.80;;
82811;SDS011;72567;55.696;37.960;2024-02-23T09:17:52;16.02;;;7.13;;
82811;SDS011;72567;55.696;37.960;2024-02-23T09:20:53;18.88;;;9.98;;
82811;SDS011;72567;55.696;37.960;2024-02-23T09:23:54;12.07;;;6.20;;
82811;SDS011;72567;55.696;37.960;2024-02-23T09:26:54;14.45;;;6.72;;
82811;SDS011;72567;55.696;37.960;2024-02-23T09:29:55;11.80;;;6.25;;
82811;SDS011;72567;55.696;37.960;2024-02-23T09:32:58;12.90;;;7.15;;
82811;SDS011;72567;55.696;37.960;2024-02-23T09:36:06;17.30;;;8.27;;
82811;SDS011;72567;55.696;37.960;2024-02-23T09:39:07;17.48;;;9.73;;
82811;SDS011;72567;55.696;37.960;2024-02-23T09:42:09;21.45;;;11.57;;
82811;SDS011;72567;55.696;37.960;2024-02-23T09:45:11;26.10;;;12.50;;
82811;SDS011;72567;55.696;37.960;2024-02-23T09:48:12;21.00;;;10.85;;
82811;SDS011;72567;55.696;37.960;2024-02-23T09:51:15;21.52;;;9.75;;
82811;SDS011;72567;55.696;37.960;2024-02-23T09:54:16;21.65;;;11.18;;
82811;SDS011;72567;55.696;37.960;2024-02-23T09:57:17;21.52;;;10.93;;
82811;SDS011;72567;55.696;37.960;2024-02-23T10:00:19;21.88;;;11.65;;
82811;SDS011;72567;55.696;37.960;2024-02-23T10:03:19;20.55;;;10.02;;
82811;SDS011;72567;55.696;37.960;2024-02-23T10:06:20;22.98;;;9.90;;
82811;SDS011;72567;55.696;37.960;2024-02-23T10:09:21;23.00;;;10.52;;
82811;SDS011;72567;55.696;37.960;2024-02-23T10:12:22;25.80;;;10.02;;
82811;SDS011;72567;55.696;37.960;2024-02-23T10:15:22;25.52;;;11.63;;
82811;SDS011;72567;55.696;37.960;2024-02-23T10:18:23;23.67;;;11.30;;
82811;SDS011;72567;55.696;37.960;2024-02-23T10:21:24;21.58;;;10.55;;
82811;SDS011;72567;55.696;37.960;2024-02-23T10:24:25;21.73;;;10.13;;
82811;SDS011;72567;55.696;37.960;2024-02-23T10:27:26;23.23;;;11.60;;
82811;SDS011;72567;55.696;37.960;2024-02-23T10:30:27;19.00;;;8.48;;
82811;SDS011;72567;55.696;37.960;2024-02-23T10:33:28;23.50;;;11.38;;
82811;SDS011;72567;55.696;37.960;2024-02-23T10:36:29;21.20;;;9.73;;
82811;SDS011;72567;55.696;37.960;2024-02-23T10:39:31;19.52;;;9.77;;
82811;SDS011;72567;55.696;37.960;2024-02-23T10:42:33;21.42;;;11.63;;
82811;SDS011;72567;55.696;37.960;2024-02-23T10:45:34;18.15;;;8.00;;
82811;SDS011;72567;55.696;37.960;2024-02-23T10:48:36;18.05;;;9.57;;
82811;SDS011;72567;55.696;37.960;2024-02-23T10:51:39;16.98;;;8.55;;
82811;SDS011;72567;55.696;37.960;2024-02-23T10:54:41;21.13;;;8.07;;
82811;SDS011;72567;55.696;37.960;2024-02-23T10:57:42;24.90;;;11.63;;
82811;SDS011;72567;55.696;37.960;2024-02-23T11:00:43;20.35;;;8.70;;
82811;SDS011;72567;55.696;37.960;2024-02-23T11:03:46;20.05;;;9.77;;
82811;SDS011;72567;55.696;37.960;2024-02-23T11:06:51;22.85;;;12.20;;
82811;SDS011;72567;55.696;37.960;2024-02-23T11:09:52;21.73;;;10.15;;
82811;SDS011;72567;55.696;37.960;2024-02-23T11:12:57;27.10;;;11.48;;
82811;SDS011;72567;55.696;37.960;2024-02-23T11:16:07;27.63;;;10.23;;
82811;SDS011;72567;55.696;37.960;2024-02-23T11:19:09;26.50;;;12.27;;
82811;SDS011;72567;55.696;37.960;2024-02-23T11:22:12;26.83;;;11.90;;
82811;SDS011;72567;55.696;37.960;2024-02-23T11:25:13;24.88;;;11.15;;
82811;SDS011;72567;55.696;37.960;2024-02-23T11:28:21;19.08;;;10.30;;
82811;SDS011;72567;55.696;37.960;2024-02-23T11:31:24;23.92;;;11.50;;
82811;SDS011;72567;55.696;37.960;2024-02-23T11:34:29;22.77;;;9.48;;
82811;SDS011;72567;55.696;37.960;2024-02-23T11:37:30;24.88;;;10.07;;
82811;SDS011;72567;55.696;37.960;2024-02-23T11:40:31;20.77;;;9.93;;
82811;SDS011;72567;55.696;37.960;2024-02-23T11:43:34;15.15;;;8.25;;
82811;SDS011;72567;55.696;37.960;2024-02-23T11:46:34;25.58;;;11.32;;
82811;SDS011;72567;55.696;37.960;2024-02-23T11:49:35;30.20;;;12.15;;
82811;SDS011;72567;55.696;37.960;2024-02-23T11:52:39;26.95;;;11.60;;
82811;SDS011;72567;55.696;37.960;2024-02-23T11:55:40;27.25;;;12.75;;
82811;SDS011;72567;55.696;37.960;2024-02-23T11:58:41;24.90;;;10.85;;
82811;SDS011;72567;55.696;37.960;2024-02-23T12:01:42;29.17;;;13.00;;
82811;SDS011;72567;55.696;37.960;2024-02-23T12:04:43;28.98;;;12.52;;
82811;SDS011;72567;55.696;37.960;2024-02-23T12:07:44;25.58;;;12.13;;
82811;SDS011;72567;55.696;37.960;2024-02-23T12:10:44;24.33;;;10.98;;
82811;SDS011;72567;55.696;37.960;2024-02-23T12:13:45;29.30;;;12.23;;
82811;SDS011;72567;55.696;37.960;2024-02-23T12:16:46;24.58;;;10.52;;
82811;SDS011;72567;55.696;37.960;2024-02-23T12:19:47;30.13;;;12.52;;
82811;SDS011;72567;55.696;37.960;2024-02-23T12:22:47;27.33;;;13.75;;
82811;SDS011;72567;55.696;37.960;2024-02-23T12:25:56;31.67;;;13.25;;
82811;SDS011;72567;55.696;37.960;2024-02-23T12:29:00;36.92;;;15.43;;
82811;SDS011;72567;55.696;37.960;2024-02-23T12:32:04;30.42;;;13.60;;
82811;SDS011;72567;55.696;37.960;2024-02-23T12:35:05;36.22;;;13.98;;
82811;SDS011;72567;55.696;37.960;2024-02-23T12:38:06;40.63;;;16.20;;
82811;SDS011;72567;55.696;37.960;2024-02-23T12:41:07;32.70;;;13.45;;
82811;SDS011;72567;55.696;37.960;2024-02-23T12:44:08;36.92;;;14.13;;
82811;SDS011;72567;55.696;37.960;2024-02-23T12:47:08;31.50;;;12.73;;
82811;SDS011;72567;55.696;37.960;2024-02-23T12:50:09;39.13;;;17.83;;
82811;SDS011;72567;55.696;37.960;2024-02-23T12:56:34;22.70;;;10.65;;
82811;SDS011;72567;55.696;37.960;2024-02-23T12:59:35;24.00;;;11.35;;
82811;SDS011;72567;55.696;37.960;2024-02-23T13:02:36;37.22;;;14.50;;
82811;SDS011;72567;55.696;37.960;2024-02-23T13:05:36;30.83;;;13.30;;
82811;SDS011;72567;55.696;37.960;2024-02-23T13:08:37;28.88;;;14.95;;
82811;SDS011;72567;55.696;37.960;2024-02-23T13:11:40;33.40;;;13.90;;
82811;SDS011;72567;55.696;37.960;2024-02-23T13:14:41;36.30;;;16.05;;
82811;SDS011;72567;55.696;37.960;2024-02-23T13:17:42;31.02;;;14.25;;
82811;SDS011;72567;55.696;37.960;2024-02-23T13:20:42;30.70;;;13.75;;
82811;SDS011;72567;55.696;37.960;2024-02-23T13:23:43;29.63;;;12.52;;
82811;SDS011;72567;55.696;37.960;2024-02-23T13:26:43;33.15;;;13.98;;
82811;SDS011;72567;55.696;37.960;2024-02-23T13:29:44;32.33;;;14.55;;
82811;SDS011;72567;55.696;37.960;2024-02-23T13:32:45;37.20;;;14.63;;
82811;SDS011;72567;55.696;37.960;2024-02-23T13:35:46;41.03;;;16.58;;
82811;SDS011;72567;55.696;37.960;2024-02-23T13:38:46;42.85;;;18.50;;
82811;SDS011;72567;55.696;37.960;2024-02-23T13:41:47;36.70;;;17.98;;
82811;SDS011;72567;55.696;37.960;2024-02-23T13:44:47;41.25;;;19.00;;
82811;SDS011;72567;55.696;37.960;2024-02-23T13:47:58;42.08;;;18.27;;
82811;SDS011;72567;55.696;37.960;2024-02-23T13:51:00;40.22;;;17.63;;
82811;SDS011;72567;55.696;37.960;2024-02-23T13:54:03;31.42;;;14.57;;
82811;SDS011;72567;55.696;37.960;2024-02-23T13:57:04;42.63;;;18.35;;
82811;SDS011;72567;55.696;37.960;2024-02-23T14:00:05;42.40;;;19.73;;
82811;SDS011;72567;55.696;37.960;2024-02-23T14:03:08;50.33;;;20.65;;
82811;SDS011;72567;55.696;37.960;2024-02-23T14:06:13;49.05;;;20.02;;
82811;SDS011;72567;55.696;37.960;2024-02-23T14:09:13;43.65;;;18.70;;
82811;SDS011;72567;55.696;37.960;2024-02-23T14:12:14;43.13;;;17.17;;
82811;SDS011;72567;55.696;37.960;2024-02-23T14:15:15;48.45;;;20.23;;
82811;SDS011;72567;55.696;37.960;2024-02-23T14:18:15;47.53;;;21.15;;
82811;SDS011;72567;55.696;37.960;2024-02-23T14:21:16;33.17;;;12.90;;
82811;SDS011;72567;55.696;37.960;2024-02-23T14:24:18;44.25;;;18.10;;
82811;SDS011;72567;55.696;37.960;2024-02-23T14:27:19;41.60;;;18.98;;
82811;SDS011;72567;55.696;37.960;2024-02-23T14:30:19;50.15;;;18.75;;
82811;SDS011;72567;55.696;37.960;2024-02-23T14:33:20;49.88;;;21.40;;
82811;SDS011;72567;55.696;37.960;2024-02-23T14:36:21;44.72;;;20.27;;
82811;SDS011;72567;55.696;37.960;2024-02-23T14:39:23;36.10;;;14.65;;
82811;SDS011;72567;55.696;37.960;2024-02-23T14:42:24;44.65;;;18.30;;
82811;SDS011;72567;55.696;37.960;2024-02-23T14:45:24;40.50;;;16.20;;
82811;SDS011;72567;55.696;37.960;2024-02-23T14:48:27;37.38;;;15.90;;
82811;SDS011;72567;55.696;37.960;2024-02-23T14:51:28;32.50;;;13.98;;
82811;SDS011;72567;55.696;37.960;2024-02-23T14:54:29;37.22;;;15.55;;
82811;SDS011;72567;55.696;37.960;2024-02-23T14:57:30;31.80;;;14.55;;
82811;SDS011;72567;55.696;37.960;2024-02-23T15:00:30;38.53;;;13.45;;
82811;SDS011;72567;55.696;37.960;2024-02-23T15:03:33;34.80;;;15.82;;
82811;SDS011;72567;55.696;37.960;2024-02-23T15:06:34;38.47;;;16.83;;
82811;SDS011;72567;55.696;37.960;2024-02-23T15:09:37;30.20;;;13.32;;
82811;SDS011;72567;55.696;37.960;2024-02-23T15:12:37;39.67;;;17.85;;
82811;SDS011;72567;55.696;37.960;2024-02-23T15:15:38;38.63;;;16.52;;
82811;SDS011;72567;55.696;37.960;2024-02-23T15:18:40;31.00;;;12.10;;
82811;SDS011;72567;55.696;37.960;2024-02-23T15:21:41;42.95;;;18.42;;
82811;SDS011;72567;55.696;37.960;2024-02-23T15:24:42;44.08;;;20.58;;
82811;SDS011;72567;55.696;37.960;2024-02-23T15:27:45;43.75;;;17.77;;
82811;SDS011;72567;55.696;37.960;2024-02-23T15:30:47;43.35;;;18.48;;
82811;SDS011;72567;55.696;37.960;2024-02-23T15:33:48;43.33;;;18.73;;
82811;SDS011;72567;55.696;37.960;2024-02-23T15:36:49;37.97;;;15.27;;
82811;SDS011;72567;55.696;37.960;2024-02-23T15:39:50;37.17;;;14.43;;
82811;SDS011;72567;55.696;37.960;2024-02-23T15:42:50;31.35;;;14.25;;
82811;SDS011;72567;55.696;37.960;2024-02-23T15:45:51;39.47;;;16.88;;
82811;SDS011;72567;55.696;37.960;2024-02-23T15:48:52;43.45;;;17.38;;
82811;SDS011;72567;55.696;37.960;2024-02-23T15:51:53;40.90;;;18.65;;
82811;SDS011;72567;55.696;37.960;2024-02-23T15:54:53;44.95;;;19.70;;
82811;SDS011;72567;55.696;37.960;2024-02-23T15:57:54;36.03;;;17.23;;
82811;SDS011;72567;55.696;37.960;2024-02-23T16:00:54;44.55;;;18.35;;
82811;SDS011;72567;55.696;37.960;2024-02-23T16:03:55;44.50;;;17.70;;
82811;SDS011;72567;55.696;37.960;2024-02-23T16:06:56;46.63;;;21.48;;
82811;SDS011;72567;55.696;37.960;2024-02-23T16:09:57;59.75;;;26.88;;
82811;SDS011;72567;55.696;37.960;2024-02-23T16:12:57;55.30;;;23.48;;
82811;SDS011;72567;55.696;37.960;2024-02-23T16:16:02;55.22;;;24.90;;
82811;SDS011;72567;55.696;37.960;2024-02-23T16:19:03;53.40;;;21.65;;
82811;SDS011;72567;55.696;37.960;2024-02-23T16:22:04;49.50;;;19.15;;
82811;SDS011;72567;55.696;37.960;2024-02-23T16:25:05;50.08;;;18.02;;
82811;SDS011;72567;55.696;37.960;2024-02-23T16:28:06;43.95;;;16.25;;
82811;SDS011;72567;55.696;37.960;2024-02-23T16:31:06;43.47;;;18.05;;
82811;SDS011;72567;55.696;37.960;2024-02-23T16:34:07;50.53;;;21.08;;
82811;SDS011;72567;55.696;37.960;2024-02-23T16:37:08;33.63;;;14.32;;
82811;SDS011;72567;55.696;37.960;2024-02-23T16:40:17;49.83;;;19.58;;
82811;SDS011;72567;55.696;37.960;2024-02-23T16:46:28;46.97;;;19.93;;
82811;SDS011;72567;55.696;37.960;2024-02-23T16:49:28;47.35;;;17.45;;
82811;SDS011;72567;55.696;37.960;2024-02-23T16:52:29;55.17;;;23.40;;
82811;SDS011;72567;55.696;37.960;2024-02-23T16:55:30;57.45;;;22.17;;
82811;SDS011;72567;55.696;37.960;2024-02-23T16:58:30;47.25;;;21.88;;
82811;SDS011;72567;55.696;37.960;2024-02-23T17:01:36;46.88;;;19.90;;
82811;SDS011;72567;55.696;37.960;2024-02-23T17:04:40;45.13;;;18.75;;
82811;SDS011;72567;55.696;37.960;2024-02-23T17:07:41;44.95;;;20.65;;
82811;SDS011;72567;55.696;37.960;2024-02-23T17:10:42;43.28;;;19.40;;
82811;SDS011;72567;55.696;37.960;2024-02-23T17:13:43;41.00;;;16.23;;
82811;SDS011;72567;55.696;37.960;2024-02-23T17:16:46;52.40;;;23.17;;
82811;SDS011;72567;55.696;37.960;2024-02-23T17:19:47;52.35;;;19.58;;
82811;SDS011;72567;55.696;37.960;2024-02-23T17:22:48;55.30;;;21.30;;
82811;SDS011;72567;55.696;37.960;2024-02-23T17:25:49;52.72;;;20.50;;
82811;SDS011;72567;55.696;37.960;2024-02-23T17:28:50;53.97;;;22.23;;
82811;SDS011;72567;55.696;37.960;2024-02-23T17:31:51;47.60;;;17.88;;
82811;SDS011;72567;55.696;37.960;2024-02-23T17:34:53;54.75;;;20.98;;
82811;SDS011;72567;55.696;37.960;2024-02-23T17:37:53;61.13;;;22.38;;